sensor_id;sensor_type;location;lat;lon;timestamp;P1;durP1;ratioP1;P2;durP2;ratioP2
45136;SDS011;30894;51.740;19.498;2022-08-19T00:01:49;10.85;;;6.00;;
45136;SDS011;30894;51.740;19.498;2022-08-19T00:04:18;14.02;;;5.75;;
45136;SDS011;30894;51.740;19.498;2022-08-19T00:06:51;11.93;;;5.78;;
45136;SDS011;30894;51.740;19.498;2022-08-19T00:09:18;11.07;;;6.18;;
45136;SDS011;30894;51.740;19.498;2022-08-19T00:11:47;13.50;;;5.82;;
45136;SDS011;30894;51.740;19.498;2022-08-19T00:14:15;10.23;;;5.85;;
45136;SDS011;30894;51.740;19.498;2022-08-19T00:16:43;9.35;;;5.30;;
45136;SDS011;30894;51.740;19.498;2022-08-19T00:19:13;9.57;;;5.43;;
45136;SDS011;30894;51.740;19.498;2022-08-19T00:21:40;10.85;;;5.35;;
45136;SDS011;30894;51.740;19.498;2022-08-19T00:24:07;10.15;;;6.15;;
45136;SDS011;30894;51.740;19.498;2022-08-19T00:26:36;13.65;;;6.22;;
45136;SDS011;30894;51.740;19.498;2022-08-19T00:29:03;10.82;;;5.80;;
45136;SDS011;30894;51.740;19.498;2022-08-19T00:31:31;12.13;;;5.80;;
45136;SDS011;30894;51.740;19.498;2022-08-19T00:33:57;11.65;;;5.22;;
45136;SDS011;30894;51.740;19.498;2022-08-19T00:36:24;10.00;;;5.20;;
45136;SDS011;30894;51.740;19.498;2022-08-19T00:38:50;11.75;;;5.93;;
45136;SDS011;30894;51.740;19.498;2022-08-19T00:41:18;9.70;;;5.97;;
45136;SDS011;30894;51.740;19.498;2022-08-19T00:44:00;9.45;;;5.75;;
45136;SDS011;30894;51.740;19.498;2022-08-19T00:46:31;11.65;;;5.45;;
45136;SDS011;30894;51.740;19.498;2022-08-19T00:49:02;8.80;;;5.70;;
45136;SDS011;30894;51.740;19.498;2022-08-19T00:51:34;10.37;;;5.57;;
45136;SDS011;30894;51.740;19.498;2022-08-19T00:54:02;11.98;;;5.53;;
45136;SDS011;30894;51.740;19.498;2022-08-19T00:56:28;14.05;;;6.13;;
45136;SDS011;30894;51.740;19.498;2022-08-19T00:58:56;12.32;;;5.60;;
45136;SDS011;30894;51.740;19.498;2022-08-19T01:01:23;10.65;;;6.03;;
45136;SDS011;30894;51.740;19.498;2022-08-19T01:03:50;11.05;;;5.75;;
45136;SDS011;30894;51.740;19.498;2022-08-19T01:06:16;10.05;;;5.55;;
45136;SDS011;30894;51.740;19.498;2022-08-19T01:08:42;11.52;;;6.28;;
45136;SDS011;30894;51.740;19.498;2022-08-19T01:11:08;10.88;;;5.95;;
45136;SDS011;30894;51.740;19.498;2022-08-19T01:13:34;9.15;;;5.82;;
45136;SDS011;30894;51.740;19.498;2022-08-19T01:16:03;10.98;;;5.60;;
45136;SDS011;30894;51.740;19.498;2022-08-19T01:18:35;11.15;;;6.50;;
45136;SDS011;30894;51.740;19.498;2022-08-19T01:21:16;12.07;;;6.38;;
45136;SDS011;30894;51.740;19.498;2022-08-19T01:23:50;8.93;;;5.70;;
45136;SDS011;30894;51.740;19.498;2022-08-19T01:26:18;13.25;;;5.55;;
45136;SDS011;30894;51.740;19.498;2022-08-19T01:28:50;12.00;;;6.40;;
45136;SDS011;30894;51.740;19.498;2022-08-19T01:31:21;12.27;;;6.30;;
45136;SDS011;30894;51.740;19.498;2022-08-19T01:33:55;13.63;;;5.90;;
45136;SDS011;30894;51.740;19.498;2022-08-19T01:36:30;13.48;;;5.70;;
45136;SDS011;30894;51.740;19.498;2022-08-19T01:39:12;10.18;;;5.63;;
45136;SDS011;30894;51.740;19.498;2022-08-19T01:41:45;10.82;;;5.55;;
45136;SDS011;30894;51.740;19.498;2022-08-19T01:44:12;9.93;;;6.00;;
45136;SDS011;30894;51.740;19.498;2022-08-19T01:46:38;15.93;;;5.93;;
45136;SDS011;30894;51.740;19.498;2022-08-19T01:49:06;11.10;;;5.93;;
45136;SDS011;30894;51.740;19.498;2022-08-19T01:51:33;12.90;;;5.63;;
45136;SDS011;30894;51.740;19.498;2022-08-19T01:54:00;9.80;;;6.18;;
45136;SDS011;30894;51.740;19.498;2022-08-19T01:56:26;10.13;;;5.93;;
45136;SDS011;30894;51.740;19.498;2022-08-19T01:58:57;7.55;;;5.22;;
45136;SDS011;30894;51.740;19.498;2022-08-19T02:01:26;11.30;;;6.03;;
45136;SDS011;30894;51.740;19.498;2022-08-19T02:03:52;9.35;;;5.60;;
45136;SDS011;30894;51.740;19.498;2022-08-19T02:06:19;11.57;;;6.43;;
45136;SDS011;30894;51.740;19.498;2022-08-19T02:08:45;10.98;;;5.65;;
45136;SDS011;30894;51.740;19.498;2022-08-19T02:11:23;10.18;;;5.72;;
45136;SDS011;30894;51.740;19.498;2022-08-19T02:13:57;12.80;;;5.75;;
45136;SDS011;30894;51.740;19.498;2022-08-19T02:16:23;9.95;;;5.72;;
45136;SDS011;30894;51.740;19.498;2022-08-19T02:18:49;9.98;;;5.15;;
45136;SDS011;30894;51.740;19.498;2022-08-19T02:21:16;7.55;;;4.97;;
45136;SDS011;30894;51.740;19.498;2022-08-19T02:23:45;14.98;;;6.07;;
45136;SDS011;30894;51.740;19.498;2022-08-19T02:26:11;10.60;;;5.95;;
45136;SDS011;30894;51.740;19.498;2022-08-19T02:28:38;9.40;;;5.75;;
45136;SDS011;30894;51.740;19.498;2022-08-19T02:31:08;13.18;;;5.40;;
45136;SDS011;30894;51.740;19.498;2022-08-19T02:33:44;11.02;;;5.88;;
45136;SDS011;30894;51.740;19.498;2022-08-19T02:36:12;7.90;;;5.20;;
45136;SDS011;30894;51.740;19.498;2022-08-19T02:38:40;13.27;;;5.47;;
45136;SDS011;30894;51.740;19.498;2022-08-19T02:41:13;9.25;;;5.15;;
45136;SDS011;30894;51.740;19.498;2022-08-19T02:43:43;11.65;;;6.10;;
45136;SDS011;30894;51.740;19.498;2022-08-19T02:46:13;15.20;;;5.68;;
45136;SDS011;30894;51.740;19.498;2022-08-19T02:48:48;9.63;;;4.85;;
45136;SDS011;30894;51.740;19.498;2022-08-19T02:51:19;13.18;;;5.75;;
45136;SDS011;30894;51.740;19.498;2022-08-19T02:53:53;12.30;;;5.57;;
45136;SDS011;30894;51.740;19.498;2022-08-19T02:56:20;9.57;;;5.30;;
45136;SDS011;30894;51.740;19.498;2022-08-19T02:58:46;7.97;;;5.40;;
45136;SDS011;30894;51.740;19.498;2022-08-19T03:01:23;12.23;;;5.88;;
45136;SDS011;30894;51.740;19.498;2022-08-19T03:03:53;12.13;;;6.30;;
45136;SDS011;30894;51.740;19.498;2022-08-19T03:06:21;10.13;;;5.45;;
45136;SDS011;30894;51.740;19.498;2022-08-19T03:08:48;10.93;;;5.40;;
45136;SDS011;30894;51.740;19.498;2022-08-19T03:11:19;9.13;;;5.10;;
45136;SDS011;30894;51.740;19.498;2022-08-19T03:13:47;10.52;;;5.15;;
45136;SDS011;30894;51.740;19.498;2022-08-19T03:16:19;12.30;;;5.70;;
45136;SDS011;30894;51.740;19.498;2022-08-19T03:18:49;9.15;;;5.72;;
45136;SDS011;30894;51.740;19.498;2022-08-19T03:21:17;13.88;;;5.28;;
45136;SDS011;30894;51.740;19.498;2022-08-19T03:23:47;10.93;;;5.72;;
45136;SDS011;30894;51.740;19.498;2022-08-19T03:26:14;18.08;;;6.80;;
45136;SDS011;30894;51.740;19.498;2022-08-19T03:28:43;12.45;;;5.70;;
45136;SDS011;30894;51.740;19.498;2022-08-19T03:31:15;10.98;;;5.85;;
45136;SDS011;30894;51.740;19.498;2022-08-19T03:33:45;10.13;;;5.65;;
45136;SDS011;30894;51.740;19.498;2022-08-19T03:36:12;10.68;;;4.97;;
45136;SDS011;30894;51.740;19.498;2022-08-19T03:38:46;8.57;;;5.13;;
45136;SDS011;30894;51.740;19.498;2022-08-19T03:41:22;8.80;;;5.80;;
45136;SDS011;30894;51.740;19.498;2022-08-19T03:43:54;11.52;;;5.75;;
45136;SDS011;30894;51.740;19.498;2022-08-19T03:46:22;11.35;;;6.10;;
45136;SDS011;30894;51.740;19.498;2022-08-19T03:48:57;9.70;;;5.85;;
45136;SDS011;30894;51.740;19.498;2022-08-19T03:51:31;9.23;;;6.25;;
45136;SDS011;30894;51.740;19.498;2022-08-19T03:54:01;11.93;;;6.35;;
45136;SDS011;30894;51.740;19.498;2022-08-19T03:56:30;8.77;;;5.40;;
45136;SDS011;30894;51.740;19.498;2022-08-19T03:59:04;10.30;;;5.10;;
45136;SDS011;30894;51.740;19.498;2022-08-19T04:01:32;11.98;;;5.47;;
45136;SDS011;30894;51.740;19.498;2022-08-19T04:03:58;11.30;;;5.65;;
45136;SDS011;30894;51.740;19.498;2022-08-19T04:06:30;9.57;;;5.57;;
45136;SDS011;30894;51.740;19.498;2022-08-19T04:09:00;10.70;;;5.53;;
45136;SDS011;30894;51.740;19.498;2022-08-19T04:11:33;10.40;;;5.03;;
45136;SDS011;30894;51.740;19.498;2022-08-19T04:14:05;11.05;;;5.15;;
45136;SDS011;30894;51.740;19.498;2022-08-19T04:16:33;8.95;;;4.80;;
45136;SDS011;30894;51.740;19.498;2022-08-19T04:19:00;10.10;;;5.22;;
45136;SDS011;30894;51.740;19.498;2022-08-19T04:21:28;12.77;;;5.25;;
45136;SDS011;30894;51.740;19.498;2022-08-19T04:23:55;8.90;;;5.07;;
45136;SDS011;30894;51.740;19.498;2022-08-19T04:26:27;8.98;;;5.18;;
45136;SDS011;30894;51.740;19.498;2022-08-19T04:28:59;7.68;;;5.05;;
45136;SDS011;30894;51.740;19.498;2022-08-19T04:31:31;12.07;;;5.53;;
45136;SDS011;30894;51.740;19.498;2022-08-19T04:34:01;9.68;;;5.75;;
45136;SDS011;30894;51.740;19.498;2022-08-19T04:36:32;11.73;;;5.07;;
45136;SDS011;30894;51.740;19.498;2022-08-19T04:39:06;7.95;;;5.40;;
45136;SDS011;30894;51.740;19.498;2022-08-19T04:41:39;10.65;;;5.75;;
45136;SDS011;30894;51.740;19.498;2022-08-19T04:44:24;9.35;;;5.40;;
45136;SDS011;30894;51.740;19.498;2022-08-19T04:46:51;16.98;;;5.57;;
45136;SDS011;30894;51.740;19.498;2022-08-19T04:49:19;11.60;;;5.50;;
45136;SDS011;30894;51.740;19.498;2022-08-19T04:51:48;9.60;;;5.22;;
45136;SDS011;30894;51.740;19.498;2022-08-19T04:54:17;9.27;;;5.18;;
45136;SDS011;30894;51.740;19.498;2022-08-19T04:56:53;14.30;;;5.78;;
45136;SDS011;30894;51.740;19.498;2022-08-19T04:59:20;8.07;;;4.68;;
45136;SDS011;30894;51.740;19.498;2022-08-19T05:01:46;10.30;;;4.72;;
45136;SDS011;30894;51.740;19.498;2022-08-19T05:04:14;9.88;;;5.20;;
45136;SDS011;30894;51.740;19.498;2022-08-19T05:06:44;10.70;;;5.13;;
45136;SDS011;30894;51.740;19.498;2022-08-19T05:09:13;8.60;;;5.00;;
45136;SDS011;30894;51.740;19.498;2022-08-19T05:11:40;10.73;;;4.93;;
45136;SDS011;30894;51.740;19.498;2022-08-19T05:14:07;10.52;;;5.10;;
45136;SDS011;30894;51.740;19.498;2022-08-19T05:16:35;8.68;;;5.45;;
45136;SDS011;30894;51.740;19.498;2022-08-19T05:19:01;9.35;;;4.72;;
45136;SDS011;30894;51.740;19.498;2022-08-19T05:21:46;9.82;;;4.80;;
45136;SDS011;30894;51.740;19.498;2022-08-19T05:24:31;13.60;;;4.75;;
45136;SDS011;30894;51.740;19.498;2022-08-19T05:26:59;6.35;;;4.53;;
45136;SDS011;30894;51.740;19.498;2022-08-19T05:29:28;6.20;;;4.13;;
45136;SDS011;30894;51.740;19.498;2022-08-19T05:32:05;9.18;;;4.93;;
45136;SDS011;30894;51.740;19.498;2022-08-19T05:34:36;7.07;;;4.47;;
45136;SDS011;30894;51.740;19.498;2022-08-19T05:37:04;9.65;;;4.85;;
45136;SDS011;30894;51.740;19.498;2022-08-19T05:39:33;14.48;;;4.85;;
45136;SDS011;30894;51.740;19.498;2022-08-19T05:42:04;8.35;;;4.70;;
45136;SDS011;30894;51.740;19.498;2022-08-19T05:44:36;6.35;;;3.95;;
45136;SDS011;30894;51.740;19.498;2022-08-19T05:47:08;9.05;;;3.92;;
45136;SDS011;30894;51.740;19.498;2022-08-19T05:49:36;5.60;;;4.00;;
45136;SDS011;30894;51.740;19.498;2022-08-19T05:52:03;6.32;;;4.05;;
45136;SDS011;30894;51.740;19.498;2022-08-19T05:54:32;6.00;;;4.10;;
45136;SDS011;30894;51.740;19.498;2022-08-19T05:57:00;9.65;;;4.55;;
45136;SDS011;30894;51.740;19.498;2022-08-19T05:59:27;10.43;;;4.50;;
45136;SDS011;30894;51.740;19.498;2022-08-19T06:01:53;11.05;;;4.53;;
45136;SDS011;30894;51.740;19.498;2022-08-19T06:04:23;8.75;;;4.47;;
45136;SDS011;30894;51.740;19.498;2022-08-19T06:06:50;7.35;;;4.22;;
45136;SDS011;30894;51.740;19.498;2022-08-19T06:09:19;8.95;;;3.67;;
45136;SDS011;30894;51.740;19.498;2022-08-19T06:11:48;10.15;;;4.10;;
45136;SDS011;30894;51.740;19.498;2022-08-19T06:16:51;7.88;;;4.28;;
45136;SDS011;30894;51.740;19.498;2022-08-19T06:19:18;9.95;;;4.45;;
45136;SDS011;30894;51.740;19.498;2022-08-19T06:21:47;8.45;;;3.75;;
45136;SDS011;30894;51.740;19.498;2022-08-19T06:24:16;11.98;;;5.10;;
45136;SDS011;30894;51.740;19.498;2022-08-19T06:26:49;5.57;;;4.28;;
45136;SDS011;30894;51.740;19.498;2022-08-19T06:29:19;6.38;;;4.35;;
45136;SDS011;30894;51.740;19.498;2022-08-19T06:31:49;8.90;;;4.00;;
45136;SDS011;30894;51.740;19.498;2022-08-19T06:34:19;7.65;;;4.65;;
45136;SDS011;30894;51.740;19.498;2022-08-19T06:36:49;8.65;;;4.20;;
45136;SDS011;30894;51.740;19.498;2022-08-19T06:39:18;6.90;;;3.97;;
45136;SDS011;30894;51.740;19.498;2022-08-19T06:41:49;5.72;;;3.70;;
45136;SDS011;30894;51.740;19.498;2022-08-19T06:44:19;8.73;;;4.55;;
45136;SDS011;30894;51.740;19.498;2022-08-19T06:46:47;7.70;;;4.65;;
45136;SDS011;30894;51.740;19.498;2022-08-19T06:49:14;6.63;;;3.90;;
45136;SDS011;30894;51.740;19.498;2022-08-19T06:51:42;11.70;;;4.65;;
45136;SDS011;30894;51.740;19.498;2022-08-19T06:54:14;7.63;;;3.97;;
45136;SDS011;30894;51.740;19.498;2022-08-19T06:56:43;8.40;;;3.88;;
45136;SDS011;30894;51.740;19.498;2022-08-19T06:59:11;6.45;;;4.43;;
45136;SDS011;30894;51.740;19.498;2022-08-19T07:01:43;6.72;;;4.45;;
45136;SDS011;30894;51.740;19.498;2022-08-19T07:04:22;7.40;;;3.95;;
45136;SDS011;30894;51.740;19.498;2022-08-19T07:06:57;9.45;;;4.30;;
45136;SDS011;30894;51.740;19.498;2022-08-19T07:09:35;8.27;;;4.43;;
45136;SDS011;30894;51.740;19.498;2022-08-19T07:12:05;5.13;;;3.67;;
45136;SDS011;30894;51.740;19.498;2022-08-19T07:14:34;7.72;;;4.03;;
45136;SDS011;30894;51.740;19.498;2022-08-19T07:17:03;8.68;;;4.18;;
45136;SDS011;30894;51.740;19.498;2022-08-19T07:19:33;6.68;;;3.45;;
45136;SDS011;30894;51.740;19.498;2022-08-19T07:22:01;9.30;;;3.75;;
45136;SDS011;30894;51.740;19.498;2022-08-19T07:24:33;6.03;;;3.95;;
45136;SDS011;30894;51.740;19.498;2022-08-19T07:27:01;6.25;;;4.45;;
45136;SDS011;30894;51.740;19.498;2022-08-19T07:29:30;6.03;;;3.67;;
45136;SDS011;30894;51.740;19.498;2022-08-19T07:32:00;6.45;;;2.60;;
45136;SDS011;30894;51.740;19.498;2022-08-19T07:34:28;8.93;;;4.55;;
45136;SDS011;30894;51.740;19.498;2022-08-19T07:36:55;11.63;;;4.20;;
45136;SDS011;30894;51.740;19.498;2022-08-19T07:39:24;7.05;;;4.38;;
45136;SDS011;30894;51.740;19.498;2022-08-19T07:41:57;10.13;;;4.00;;
45136;SDS011;30894;51.740;19.498;2022-08-19T07:44:26;4.93;;;3.65;;
45136;SDS011;30894;51.740;19.498;2022-08-19T07:46:53;5.85;;;3.65;;
45136;SDS011;30894;51.740;19.498;2022-08-19T07:49:21;8.77;;;4.18;;
45136;SDS011;30894;51.740;19.498;2022-08-19T07:51:50;6.10;;;4.25;;
45136;SDS011;30894;51.740;19.498;2022-08-19T07:54:21;5.70;;;4.10;;
45136;SDS011;30894;51.740;19.498;2022-08-19T07:56:50;10.25;;;4.05;;
45136;SDS011;30894;51.740;19.498;2022-08-19T07:59:17;4.43;;;3.22;;
45136;SDS011;30894;51.740;19.498;2022-08-19T08:01:44;6.63;;;4.43;;
45136;SDS011;30894;51.740;19.498;2022-08-19T08:04:11;6.78;;;4.40;;
45136;SDS011;30894;51.740;19.498;2022-08-19T08:06:55;7.63;;;4.53;;
45136;SDS011;30894;51.740;19.498;2022-08-19T08:09:41;7.95;;;3.90;;
45136;SDS011;30894;51.740;19.498;2022-08-19T08:12:10;8.48;;;4.85;;
45136;SDS011;30894;51.740;19.498;2022-08-19T08:14:44;6.93;;;4.43;;
45136;SDS011;30894;51.740;19.498;2022-08-19T08:17:15;8.93;;;4.13;;
45136;SDS011;30894;51.740;19.498;2022-08-19T08:19:46;7.22;;;4.22;;
45136;SDS011;30894;51.740;19.498;2022-08-19T08:22:17;7.30;;;4.05;;
45136;SDS011;30894;51.740;19.498;2022-08-19T08:25:08;8.40;;;4.20;;
45136;SDS011;30894;51.740;19.498;2022-08-19T08:27:40;7.25;;;4.10;;
45136;SDS011;30894;51.740;19.498;2022-08-19T08:30:08;6.07;;;4.38;;
45136;SDS011;30894;51.740;19.498;2022-08-19T08:35:07;8.75;;;4.45;;
45136;SDS011;30894;51.740;19.498;2022-08-19T08:37:37;10.93;;;4.65;;
45136;SDS011;30894;51.740;19.498;2022-08-19T08:40:05;6.25;;;4.38;;
45136;SDS011;30894;51.740;19.498;2022-08-19T08:42:47;7.57;;;4.40;;
45136;SDS011;30894;51.740;19.498;2022-08-19T08:45:26;6.28;;;4.40;;
45136;SDS011;30894;51.740;19.498;2022-08-19T08:47:54;5.55;;;4.32;;
45136;SDS011;30894;51.740;19.498;2022-08-19T08:50:35;5.07;;;3.65;;
45136;SDS011;30894;51.740;19.498;2022-08-19T08:53:10;7.80;;;4.43;;
45136;SDS011;30894;51.740;19.498;2022-08-19T08:55:42;7.22;;;4.45;;
45136;SDS011;30894;51.740;19.498;2022-08-19T08:58:36;6.25;;;4.38;;
45136;SDS011;30894;51.740;19.498;2022-08-19T09:01:08;5.03;;;4.03;;
45136;SDS011;30894;51.740;19.498;2022-08-19T09:03:37;11.77;;;5.05;;
45136;SDS011;30894;51.740;19.498;2022-08-19T09:06:14;5.70;;;3.97;;
45136;SDS011;30894;51.740;19.498;2022-08-19T09:09:20;6.10;;;4.07;;
45136;SDS011;30894;51.740;19.498;2022-08-19T09:12:06;7.78;;;4.22;;
45136;SDS011;30894;51.740;19.498;2022-08-19T09:15:09;5.68;;;3.55;;
45136;SDS011;30894;51.740;19.498;2022-08-19T09:17:38;4.85;;;3.58;;
45136;SDS011;30894;51.740;19.498;2022-08-19T09:20:21;6.93;;;4.75;;
45136;SDS011;30894;51.740;19.498;2022-08-19T09:22:49;6.35;;;4.13;;
45136;SDS011;30894;51.740;19.498;2022-08-19T09:25:17;8.70;;;4.22;;
45136;SDS011;30894;51.740;19.498;2022-08-19T09:27:50;6.70;;;4.10;;
45136;SDS011;30894;51.740;19.498;2022-08-19T09:30:20;5.75;;;4.07;;
45136;SDS011;30894;51.740;19.498;2022-08-19T09:32:51;8.50;;;4.40;;
45136;SDS011;30894;51.740;19.498;2022-08-19T09:35:18;5.95;;;4.00;;
45136;SDS011;30894;51.740;19.498;2022-08-19T09:37:47;10.82;;;3.92;;
45136;SDS011;30894;51.740;19.498;2022-08-19T09:40:14;9.60;;;3.72;;
45136;SDS011;30894;51.740;19.498;2022-08-19T09:42:43;7.68;;;4.10;;
45136;SDS011;30894;51.740;19.498;2022-08-19T09:45:15;10.75;;;4.40;;
45136;SDS011;30894;51.740;19.498;2022-08-19T09:47:46;8.82;;;3.90;;
45136;SDS011;30894;51.740;19.498;2022-08-19T09:50:14;11.40;;;4.55;;
45136;SDS011;30894;51.740;19.498;2022-08-19T09:52:40;8.60;;;3.75;;
45136;SDS011;30894;51.740;19.498;2022-08-19T09:55:08;4.18;;;3.58;;
45136;SDS011;30894;51.740;19.498;2022-08-19T09:57:35;7.57;;;4.32;;
45136;SDS011;30894;51.740;19.498;2022-08-19T10:00:03;7.57;;;3.88;;
45136;SDS011;30894;51.740;19.498;2022-08-19T10:02:33;5.47;;;3.92;;
45136;SDS011;30894;51.740;19.498;2022-08-19T10:05:00;6.80;;;3.92;;
45136;SDS011;30894;51.740;19.498;2022-08-19T10:07:45;6.25;;;4.00;;
45136;SDS011;30894;51.740;19.498;2022-08-19T10:10:12;6.38;;;3.90;;
45136;SDS011;30894;51.740;19.498;2022-08-19T10:12:38;9.77;;;4.03;;
45136;SDS011;30894;51.740;19.498;2022-08-19T10:15:05;5.93;;;3.88;;
45136;SDS011;30894;51.740;19.498;2022-08-19T10:17:31;8.95;;;3.53;;
45136;SDS011;30894;51.740;19.498;2022-08-19T10:20:00;6.57;;;3.53;;
45136;SDS011;30894;51.740;19.498;2022-08-19T10:22:30;5.93;;;4.00;;
45136;SDS011;30894;51.740;19.498;2022-08-19T10:24:56;7.22;;;3.63;;
45136;SDS011;30894;51.740;19.498;2022-08-19T10:27:22;7.72;;;4.00;;
45136;SDS011;30894;51.740;19.498;2022-08-19T10:29:51;5.50;;;3.60;;
45136;SDS011;30894;51.740;19.498;2022-08-19T10:32:18;5.00;;;3.60;;
45136;SDS011;30894;51.740;19.498;2022-08-19T10:34:45;8.07;;;4.00;;
45136;SDS011;30894;51.740;19.498;2022-08-19T10:37:12;8.27;;;3.60;;
45136;SDS011;30894;51.740;19.498;2022-08-19T10:39:38;5.53;;;2.63;;
45136;SDS011;30894;51.740;19.498;2022-08-19T10:42:07;4.63;;;3.70;;
45136;SDS011;30894;51.740;19.498;2022-08-19T10:44:36;6.33;;;4.00;;
45136;SDS011;30894;51.740;19.498;2022-08-19T10:47:02;10.45;;;4.10;;
45136;SDS011;30894;51.740;19.498;2022-08-19T10:49:29;7.72;;;3.55;;
45136;SDS011;30894;51.740;19.498;2022-08-19T10:51:56;5.03;;;3.38;;
45136;SDS011;30894;51.740;19.498;2022-08-19T10:54:41;6.80;;;3.58;;
45136;SDS011;30894;51.740;19.498;2022-08-19T10:57:29;4.00;;;3.17;;
45136;SDS011;30894;51.740;19.498;2022-08-19T10:59:56;6.85;;;3.22;;
45136;SDS011;30894;51.740;19.498;2022-08-19T11:02:24;8.43;;;3.30;;
45136;SDS011;30894;51.740;19.498;2022-08-19T11:04:51;7.22;;;3.28;;
45136;SDS011;30894;51.740;19.498;2022-08-19T11:07:18;4.85;;;3.00;;
45136;SDS011;30894;51.740;19.498;2022-08-19T11:09:46;8.73;;;3.40;;
45136;SDS011;30894;51.740;19.498;2022-08-19T11:12:12;5.18;;;2.88;;
45136;SDS011;30894;51.740;19.498;2022-08-19T11:14:40;6.72;;;2.67;;
45136;SDS011;30894;51.740;19.498;2022-08-19T11:17:08;3.15;;;2.38;;
45136;SDS011;30894;51.740;19.498;2022-08-19T11:19:36;4.45;;;2.65;;
45136;SDS011;30894;51.740;19.498;2022-08-19T11:22:02;5.32;;;3.15;;
45136;SDS011;30894;51.740;19.498;2022-08-19T11:24:29;4.93;;;3.25;;
45136;SDS011;30894;51.740;19.498;2022-08-19T11:27:00;9.43;;;3.42;;
45136;SDS011;30894;51.740;19.498;2022-08-19T11:29:30;7.75;;;2.95;;
45136;SDS011;30894;51.740;19.498;2022-08-19T11:31:57;12.52;;;3.53;;
45136;SDS011;30894;51.740;19.498;2022-08-19T11:34:25;10.23;;;2.95;;
45136;SDS011;30894;51.740;19.498;2022-08-19T11:36:54;5.07;;;2.60;;
45136;SDS011;30894;51.740;19.498;2022-08-19T11:39:26;9.88;;;3.17;;
45136;SDS011;30894;51.740;19.498;2022-08-19T11:41:59;13.45;;;3.10;;
45136;SDS011;30894;51.740;19.498;2022-08-19T11:44:49;8.25;;;3.10;;
45136;SDS011;30894;51.740;19.498;2022-08-19T11:47:18;4.88;;;2.58;;
45136;SDS011;30894;51.740;19.498;2022-08-19T11:49:45;8.63;;;3.03;;
45136;SDS011;30894;51.740;19.498;2022-08-19T11:52:12;9.10;;;2.75;;
45136;SDS011;30894;51.740;19.498;2022-08-19T11:54:38;5.75;;;2.67;;
45136;SDS011;30894;51.740;19.498;2022-08-19T11:57:04;6.78;;;3.17;;
45136;SDS011;30894;51.740;19.498;2022-08-19T11:59:34;6.93;;;2.58;;
45136;SDS011;30894;51.740;19.498;2022-08-19T12:02:00;4.93;;;2.80;;
45136;SDS011;30894;51.740;19.498;2022-08-19T12:04:26;5.55;;;2.80;;
45136;SDS011;30894;51.740;19.498;2022-08-19T12:06:52;5.00;;;2.70;;
45136;SDS011;30894;51.740;19.498;2022-08-19T12:09:19;5.32;;;2.58;;
45136;SDS011;30894;51.740;19.498;2022-08-19T12:11:47;9.88;;;2.42;;
45136;SDS011;30894;51.740;19.498;2022-08-19T12:14:13;5.65;;;3.17;;
45136;SDS011;30894;51.740;19.498;2022-08-19T12:16:44;7.25;;;2.65;;
45136;SDS011;30894;51.740;19.498;2022-08-19T12:19:11;8.75;;;2.55;;
45136;SDS011;30894;51.740;19.498;2022-08-19T12:21:39;4.97;;;2.72;;
45136;SDS011;30894;51.740;19.498;2022-08-19T12:24:05;6.00;;;2.97;;
45136;SDS011;30894;51.740;19.498;2022-08-19T12:26:32;6.07;;;3.17;;
45136;SDS011;30894;51.740;19.498;2022-08-19T12:28:59;6.18;;;2.50;;
45136;SDS011;30894;51.740;19.498;2022-08-19T12:31:29;7.72;;;2.42;;
45136;SDS011;30894;51.740;19.498;2022-08-19T12:33:55;5.47;;;2.33;;
45136;SDS011;30894;51.740;19.498;2022-08-19T12:36:22;8.18;;;2.92;;
45136;SDS011;30894;51.740;19.498;2022-08-19T12:38:48;7.88;;;2.92;;
45136;SDS011;30894;51.740;19.498;2022-08-19T12:41:15;6.80;;;2.53;;
45136;SDS011;30894;51.740;19.498;2022-08-19T12:43:43;7.30;;;2.63;;
45136;SDS011;30894;51.740;19.498;2022-08-19T12:46:10;6.10;;;2.85;;
45136;SDS011;30894;51.740;19.498;2022-08-19T12:48:37;10.05;;;3.00;;
45136;SDS011;30894;51.740;19.498;2022-08-19T12:51:08;6.25;;;2.72;;
45136;SDS011;30894;51.740;19.498;2022-08-19T12:53:40;5.97;;;2.88;;
45136;SDS011;30894;51.740;19.498;2022-08-19T12:56:08;6.25;;;2.92;;
45136;SDS011;30894;51.740;19.498;2022-08-19T12:58:37;9.05;;;2.80;;
45136;SDS011;30894;51.740;19.498;2022-08-19T13:01:07;5.60;;;2.63;;
45136;SDS011;30894;51.740;19.498;2022-08-19T13:03:38;5.30;;;3.05;;
45136;SDS011;30894;51.740;19.498;2022-08-19T13:06:05;7.03;;;2.65;;
45136;SDS011;30894;51.740;19.498;2022-08-19T13:08:32;7.45;;;2.22;;
45136;SDS011;30894;51.740;19.498;2022-08-19T13:11:05;7.75;;;2.72;;
45136;SDS011;30894;51.740;19.498;2022-08-19T13:13:38;6.10;;;2.90;;
45136;SDS011;30894;51.740;19.498;2022-08-19T13:16:07;6.35;;;2.53;;
45136;SDS011;30894;51.740;19.498;2022-08-19T13:18:38;6.13;;;2.67;;
45136;SDS011;30894;51.740;19.498;2022-08-19T13:21:06;6.80;;;3.65;;
45136;SDS011;30894;51.740;19.498;2022-08-19T13:23:36;13.38;;;3.40;;
45136;SDS011;30894;51.740;19.498;2022-08-19T13:26:04;8.35;;;2.58;;
45136;SDS011;30894;51.740;19.498;2022-08-19T13:28:32;4.13;;;2.72;;
45136;SDS011;30894;51.740;19.498;2022-08-19T13:31:21;6.97;;;2.80;;
45136;SDS011;30894;51.740;19.498;2022-08-19T13:34:08;6.45;;;2.25;;
45136;SDS011;30894;51.740;19.498;2022-08-19T13:36:35;5.55;;;2.47;;
45136;SDS011;30894;51.740;19.498;2022-08-19T13:39:02;4.78;;;2.80;;
45136;SDS011;30894;51.740;19.498;2022-08-19T13:41:30;7.68;;;2.08;;
45136;SDS011;30894;51.740;19.498;2022-08-19T13:43:56;7.90;;;2.83;;
45136;SDS011;30894;51.740;19.498;2022-08-19T13:46:23;5.93;;;2.40;;
45136;SDS011;30894;51.740;19.498;2022-08-19T13:48:49;9.50;;;3.20;;
45136;SDS011;30894;51.740;19.498;2022-08-19T13:51:16;8.02;;;2.30;;
45136;SDS011;30894;51.740;19.498;2022-08-19T13:53:43;7.40;;;2.25;;
45136;SDS011;30894;51.740;19.498;2022-08-19T13:56:11;6.53;;;2.78;;
45136;SDS011;30894;51.740;19.498;2022-08-19T13:58:41;11.30;;;2.80;;
45136;SDS011;30894;51.740;19.498;2022-08-19T14:01:08;6.22;;;2.60;;
45136;SDS011;30894;51.740;19.498;2022-08-19T14:03:36;11.18;;;2.63;;
45136;SDS011;30894;51.740;19.498;2022-08-19T14:06:03;6.78;;;2.47;;
45136;SDS011;30894;51.740;19.498;2022-08-19T14:08:29;7.43;;;2.97;;
45136;SDS011;30894;51.740;19.498;2022-08-19T14:10:57;7.22;;;2.42;;
45136;SDS011;30894;51.740;19.498;2022-08-19T14:13:25;9.45;;;2.40;;
45136;SDS011;30894;51.740;19.498;2022-08-19T14:15:51;6.95;;;2.70;;
45136;SDS011;30894;51.740;19.498;2022-08-19T14:18:18;6.45;;;2.95;;
45136;SDS011;30894;51.740;19.498;2022-08-19T14:20:44;6.70;;;3.38;;
45136;SDS011;30894;51.740;19.498;2022-08-19T14:23:11;6.65;;;2.42;;
45136;SDS011;30894;51.740;19.498;2022-08-19T14:25:37;8.60;;;3.20;;
45136;SDS011;30894;51.740;19.498;2022-08-19T14:28:04;8.65;;;3.00;;
45136;SDS011;30894;51.740;19.498;2022-08-19T14:30:31;7.13;;;3.03;;
45136;SDS011;30894;51.740;19.498;2022-08-19T14:33:00;8.35;;;2.92;;
45136;SDS011;30894;51.740;19.498;2022-08-19T14:35:28;9.57;;;2.85;;
45136;SDS011;30894;51.740;19.498;2022-08-19T14:37:58;7.28;;;2.67;;
45136;SDS011;30894;51.740;19.498;2022-08-19T14:40:25;7.38;;;2.90;;
45136;SDS011;30894;51.740;19.498;2022-08-19T14:42:58;6.88;;;2.78;;
45136;SDS011;30894;51.740;19.498;2022-08-19T14:45:29;11.25;;;2.70;;
45136;SDS011;30894;51.740;19.498;2022-08-19T14:48:03;7.65;;;2.88;;
45136;SDS011;30894;51.740;19.498;2022-08-19T14:50:30;6.70;;;2.80;;
45136;SDS011;30894;51.740;19.498;2022-08-19T14:52:57;9.75;;;2.90;;